Time;durP1;ratioP1;P1;durP2;ratioP2;P2;SDS_P1;SDS_P2;PMS_P1;PMS_P2;Temp;Humidity;BMP_temperature;BMP_pressure;BME280_temperature;BME280_humidity;BME280_pressure;Samples;Min_cycle;Max_cycle;Signal;HPM_P1;HPM_P2
2021/03/24 00:00:40;;;;;;;30.67;12.45;;;4.40;99.90;;;;;;5048784;28;20029;-73
2021/03/24 00:03:06;;;;;;;29.90;12.02;;;4.30;99.90;;;;;;5049391;28;20682;-73
2021/03/24 00:05:37;;;;;;;28.48;12.02;;;4.30;99.90;;;;;;5048424;28;20125;-74
2021/03/24 00:08:06;;;;;;;24.52;11.40;;;4.20;99.90;;;;;;5049355;28;20134;-73
2021/03/24 00:10:31;;;;;;;28.67;12.35;;;4.30;99.90;;;;;;5049178;28;20043;-73
2021/03/24 00:12:58;;;;;;;32.75;13.27;;;4.30;99.90;;;;;;5048694;28;20411;-73
2021/03/24 00:15:26;;;;;;;33.97;13.80;;;4.30;99.90;;;;;;5048702;28;20069;-73
2021/03/24 00:17:52;;;;;;;31.17;12.98;;;4.20;99.90;;;;;;5049614;28;20433;-73
2021/03/24 00:20:24;;;;;;;29.08;13.77;;;4.20;99.90;;;;;;5049717;28;20447;-73
2021/03/24 00:22:50;;;;;;;32.22;13.30;;;4.20;99.90;;;;;;5049486;28;20056;-73
2021/03/24 00:25:17;;;;;;;31.10;13.73;;;4.20;99.90;;;;;;5049889;28;20108;-74
2021/03/24 00:27:45;;;;;;;32.88;14.57;;;4.20;99.90;;;;;;5049319;28;20120;-73
2021/03/24 00:30:12;;;;;;;41.05;15.23;;;4.20;99.90;;;;;;5049797;28;20037;-74
2021/03/24 00:32:38;;;;;;;37.45;15.43;;;4.20;99.90;;;;;;5050232;28;20029;-73
2021/03/24 00:35:06;;;;;;;39.22;14.60;;;4.30;99.90;;;;;;5053227;28;20464;-73
2021/03/24 00:37:31;;;;;;;35.67;14.95;;;4.30;99.90;;;;;;5047636;28;20057;-73
2021/03/24 00:39:57;;;;;;;39.42;15.95;;;4.30;99.90;;;;;;5052662;28;20072;-73
2021/03/24 00:42:23;;;;;;;36.58;14.65;;;4.30;99.90;;;;;;5052951;28;20032;-73
2021/03/24 00:44:49;;;;;;;33.90;13.23;;;4.20;99.90;;;;;;5053760;28;20032;-73
2021/03/24 00:47:14;;;;;;;32.78;14.27;;;4.20;99.90;;;;;;5053074;28;20061;-73
2021/03/24 00:49:40;;;;;;;32.88;14.82;;;4.20;99.90;;;;;;5053518;28;20033;-73
2021/03/24 00:52:06;;;;;;;37.97;14.88;;;4.30;99.90;;;;;;5052599;28;20037;-73
2021/03/24 00:54:32;;;;;;;37.90;15.20;;;4.20;99.90;;;;;;5053533;28;20037;-73
2021/03/24 00:56:58;;;;;;;37.92;16.13;;;4.20;99.90;;;;;;5052778;28;20029;-73
2021/03/24 00:59:23;;;;;;;38.95;14.98;;;4.20;99.90;;;;;;5053501;28;20021;-73
2021/03/24 01:01:49;;;;;;;34.90;15.30;;;4.20;99.90;;;;;;5052763;28;20479;-73
2021/03/24 01:04:15;;;;;;;35.05;13.80;;;4.30;99.90;;;;;;5053390;28;20038;-74
2021/03/24 01:06:41;;;;;;;34.65;13.80;;;4.30;99.90;;;;;;5052859;28;20565;-73
2021/03/24 01:09:09;;;;;;;33.08;13.40;;;4.20;99.90;;;;;;5053006;28;20668;-73
2021/03/24 01:11:39;;;;;;;34.25;14.52;;;4.20;99.90;;;;;;5052179;28;20110;-73
2021/03/24 01:14:06;;;;;;;33.55;12.70;;;4.20;99.90;;;;;;5051423;28;20377;-73
2021/03/24 01:16:33;;;;;;;31.05;13.88;;;4.20;99.90;;;;;;5052550;28;20029;-73
2021/03/24 01:18:59;;;;;;;31.95;13.80;;;4.20;99.90;;;;;;5052846;28;20104;-73
2021/03/24 01:21:50;;;;;;;34.17;14.63;;;4.20;99.90;;;;;;5052070;28;20506;-73
2021/03/24 01:24:15;;;;;;;37.67;14.15;;;4.20;99.90;;;;;;5053109;28;20028;-74
2021/03/24 01:26:41;;;;;;;31.45;13.07;;;4.20;99.90;;;;;;5052529;28;20388;-74
2021/03/24 01:29:07;;;;;;;35.13;15.30;;;4.20;99.90;;;;;;5052973;28;20100;-74
2021/03/24 01:31:33;;;;;;;36.65;14.32;;;4.20;99.90;;;;;;5048380;28;20095;-73
2021/03/24 01:34:00;;;;;;;30.98;12.70;;;4.20;99.90;;;;;;5052465;28;20041;-73
2021/03/24 01:36:28;;;;;;;36.08;14.13;;;4.20;99.90;;;;;;5051821;28;20044;-74
2021/03/24 01:38:54;;;;;;;36.38;14.77;;;4.20;99.90;;;;;;5052708;28;20029;-74
2021/03/24 01:41:22;;;;;;;35.78;14.50;;;4.20;99.90;;;;;;5051786;28;20032;-74
2021/03/24 01:43:48;;;;;;;32.92;13.38;;;4.20;99.90;;;;;;5052271;28;20031;-74
2021/03/24 01:46:36;;;;;;;36.88;14.65;;;4.20;99.90;;;;;;5052078;28;20439;-73
2021/03/24 01:49:19;;;;;;;35.33;14.15;;;4.20;99.90;;;;;;5052592;28;20147;-74
2021/03/24 01:51:59;;;;;;;29.55;13.30;;;4.20;99.90;;;;;;5051370;28;20029;-74
2021/03/24 01:54:35;;;;;;;32.60;12.90;;;4.20;99.90;;;;;;5050992;28;20035;-73
2021/03/24 01:57:13;;;;;;;35.92;14.13;;;4.20;99.90;;;;;;5050438;28;20025;-74
2021/03/24 01:59:39;;;;;;;34.90;12.82;;;4.20;99.90;;;;;;5049694;28;20025;-74
2021/03/24 02:02:36;;;;;;;33.95;14.10;;;4.20;99.90;;;;;;5049110;28;20480;-73
2021/03/24 02:05:02;;;;;;;34.35;13.15;;;4.20;99.90;;;;;;5051788;28;20124;-74
2021/03/24 02:07:46;;;;;;;34.60;13.65;;;4.20;99.90;;;;;;5051578;28;20041;-74
2021/03/24 02:10:17;;;;;;;33.42;13.25;;;4.10;99.90;;;;;;5051593;28;20063;-73
2021/03/24 02:12:52;;;;;;;34.60;13.75;;;4.10;99.90;;;;;;5051759;28;20033;-73
2021/03/24 02:15:23;;;;;;;35.00;12.73;;;4.20;99.90;;;;;;5052079;28;20442;-74
2021/03/24 02:17:51;;;;;;;31.40;12.35;;;4.20;99.90;;;;;;5051337;28;20104;-73
2021/03/24 02:20:32;;;;;;;29.65;13.57;;;4.20;99.90;;;;;;5051390;28;20024;-73
2021/03/24 02:23:21;;;;;;;33.05;13.18;;;4.20;99.90;;;;;;5051882;28;20502;-73
2021/03/24 02:25:58;;;;;;;27.85;12.77;;;4.20;99.90;;;;;;5042657;28;20045;-73
2021/03/24 02:28:25;;;;;;;32.22;13.00;;;4.20;99.90;;;;;;5051054;28;20108;-74
2021/03/24 02:30:52;;;;;;;33.90;13.32;;;4.10;99.90;;;;;;5049839;28;20040;-73
2021/03/24 02:33:33;;;;;;;27.33;11.93;;;4.10;99.90;;;;;;5050264;28;20052;-73
2021/03/24 02:36:05;;;;;;;32.05;13.18;;;4.10;99.90;;;;;;5051465;28;20080;-73
2021/03/24 02:38:33;;;;;;;31.85;12.68;;;4.10;99.90;;;;;;5049830;28;20021;-74
2021/03/24 02:41:01;;;;;;;28.35;12.45;;;4.10;99.90;;;;;;5050327;28;20040;-73
2021/03/24 02:43:28;;;;;;;33.50;13.75;;;4.10;99.90;;;;;;5051530;28;20029;-73
2021/03/24 02:45:55;;;;;;;27.45;12.65;;;4.10;99.90;;;;;;5050783;28;20055;-73
2021/03/24 02:48:28;;;;;;;30.48;12.98;;;4.10;99.90;;;;;;5049542;28;20021;-73
2021/03/24 02:50:56;;;;;;;30.40;13.00;;;4.10;99.90;;;;;;5050122;28;20029;-73
2021/03/24 02:53:24;;;;;;;31.25;13.43;;;4.10;99.90;;;;;;5081667;28;20143;-74
2021/03/24 02:55:52;;;;;;;32.80;13.45;;;4.10;99.90;;;;;;5050259;28;20033;-73
2021/03/24 02:58:18;;;;;;;33.65;12.98;;;4.10;99.90;;;;;;5050330;28;20071;-73
2021/03/24 03:00:46;;;;;;;31.83;13.70;;;4.10;99.90;;;;;;5050482;28;20035;-74
2021/03/24 03:03:36;;;;;;;28.00;12.43;;;4.10;99.90;;;;;;5051171;28;20029;-74
2021/03/24 03:06:06;;;;;;;30.48;12.32;;;4.10;99.90;;;;;;5050866;28;20025;-74
2021/03/24 03:08:57;;;;;;;34.78;13.07;;;4.10;99.90;;;;;;5050371;28;20068;-73
2021/03/24 03:11:35;;;;;;;31.35;13.00;;;4.10;99.90;;;;;;5025500;28;20489;-74
2021/03/24 03:14:04;;;;;;;31.58;14.02;;;4.10;99.90;;;;;;5030981;28;20029;-74
2021/03/24 03:16:49;;;;;;;32.97;13.32;;;4.10;99.90;;;;;;5030216;28;20048;-73
2021/03/24 03:19:39;;;;;;;31.55;13.40;;;4.10;99.90;;;;;;5050787;28;20456;-74
2021/03/24 03:22:10;;;;;;;32.35;13.68;;;4.10;99.90;;;;;;5046432;28;20143;-73
2021/03/24 03:25:08;;;;;;;33.70;12.60;;;4.10;99.90;;;;;;5049497;28;20060;-73
2021/03/24 03:27:34;;;;;;;29.15;12.55;;;4.10;99.90;;;;;;5050180;28;20112;-74
2021/03/24 03:30:05;;;;;;;31.88;13.30;;;4.10;99.90;;;;;;5050593;28;20079;-74
2021/03/24 03:32:32;;;;;;;32.55;13.90;;;4.10;99.90;;;;;;5049870;28;20036;-73
2021/03/24 03:35:06;;;;;;;27.05;11.73;;;4.00;99.90;;;;;;5050482;28;20039;-74
2021/03/24 03:37:33;;;;;;;36.72;13.45;;;4.00;99.90;;;;;;5050018;28;20124;-73
2021/03/24 03:39:59;;;;;;;32.80;13.07;;;4.10;99.90;;;;;;5032437;28;20047;-74
2021/03/24 03:42:26;;;;;;;34.00;13.50;;;4.00;99.90;;;;;;5049697;28;20021;-74
2021/03/24 03:44:54;;;;;;;35.85;13.75;;;4.00;99.90;;;;;;5049091;28;20105;-74
2021/03/24 03:47:20;;;;;;;30.83;13.25;;;4.00;99.90;;;;;;5049879;28;20029;-73
2021/03/24 03:49:46;;;;;;;34.05;13.43;;;4.00;99.90;;;;;;5050055;28;20032;-73
2021/03/24 03:52:34;;;;;;;31.30;12.55;;;4.00;99.90;;;;;;5049525;28;20484;-74
2021/03/24 03:55:06;;;;;;;36.20;13.75;;;4.00;99.90;;;;;;5050436;28;20521;-74
2021/03/24 03:57:48;;;;;;;36.13;14.13;;;4.10;99.90;;;;;;5049833;28;20113;-74
2021/03/24 04:00:18;;;;;;;34.40;13.57;;;4.00;99.90;;;;;;5050007;28;20075;-73
2021/03/24 04:02:56;;;;;;;36.20;13.90;;;4.00;99.90;;;;;;5049684;28;20438;-74
2021/03/24 04:05:27;;;;;;;28.42;12.93;;;4.00;99.90;;;;;;5050125;28;20033;-74
2021/03/24 04:08:06;;;;;;;26.80;11.88;;;4.00;99.90;;;;;;5049389;28;20108;-73
2021/03/24 04:10:35;;;;;;;35.00;14.45;;;4.00;99.90;;;;;;5041587;28;20032;-73
2021/03/24 04:13:03;;;;;;;31.13;13.10;;;4.10;99.90;;;;;;5050207;28;20024;-73
2021/03/24 04:15:31;;;;;;;33.65;14.05;;;4.00;99.90;;;;;;5050080;28;20133;-74
2021/03/24 04:18:09;;;;;;;30.58;12.90;;;4.00;99.90;;;;;;5049301;28;20033;-73
2021/03/24 04:20:36;;;;;;;34.55;13.80;;;4.00;99.90;;;;;;5049201;28;20017;-73
2021/03/24 04:23:05;;;;;;;35.70;15.20;;;4.00;99.90;;;;;;5049907;28;20464;-73
2021/03/24 04:25:42;;;;;;;30.85;13.85;;;4.00;99.90;;;;;;5050004;28;20451;-73
2021/03/24 04:28:12;;;;;;;32.38;13.75;;;4.00;99.90;;;;;;5049543;28;20041;-73
2021/03/24 04:30:51;;;;;;;29.60;13.65;;;3.90;99.90;;;;;;5044862;28;20041;-73
2021/03/24 04:33:17;;;;;;;33.63;14.05;;;4.00;99.90;;;;;;5081713;28;20454;-73
2021/03/24 04:35:44;;;;;;;36.33;13.70;;;3.90;99.90;;;;;;5049349;28;20062;-73
2021/03/24 04:38:40;;;;;;;35.42;14.98;;;3.90;99.90;;;;;;5049147;28;20021;-73
2021/03/24 04:41:10;;;;;;;36.78;15.32;;;4.00;99.90;;;;;;5049091;28;20588;-73
2021/03/24 04:43:40;;;;;;;34.42;14.05;;;4.00;99.90;;;;;;5049865;28;20104;-74
2021/03/24 04:46:17;;;;;;;40.42;14.85;;;4.00;99.90;;;;;;5049725;28;20061;-73
2021/03/24 04:48:50;;;;;;;33.65;13.75;;;3.90;99.90;;;;;;5049299;28;20100;-73
2021/03/24 04:51:27;;;;;;;36.03;13.45;;;3.80;99.90;;;;;;5047992;28;20037;-73
2021/03/24 04:54:19;;;;;;;30.80;13.82;;;3.80;99.90;;;;;;5048563;28;20039;-74
2021/03/24 04:56:55;;;;;;;38.58;15.90;;;3.90;99.90;;;;;;5049233;28;20033;-73
2021/03/24 04:59:32;;;;;;;30.67;13.35;;;3.90;99.90;;;;;;5049766;28;20036;-74
2021/03/24 05:02:02;;;;;;;37.00;15.63;;;3.90;99.90;;;;;;5048470;28;20055;-73
2021/03/24 05:04:33;;;;;;;39.28;14.63;;;3.80;99.90;;;;;;5076116;28;20437;-74
2021/03/24 05:07:32;;;;;;;36.67;13.75;;;3.70;99.90;;;;;;5048595;28;20040;-73
2021/03/24 05:09:57;;;;;;;35.38;13.95;;;3.70;99.90;;;;;;5048159;28;20029;-73
2021/03/24 05:12:29;;;;;;;36.40;13.52;;;3.70;99.90;;;;;;5045616;28;20025;-73
2021/03/24 05:15:06;;;;;;;29.17;12.55;;;3.70;99.90;;;;;;5048169;28;20556;-73
2021/03/24 05:17:38;;;;;;;31.80;12.95;;;3.70;99.90;;;;;;5049161;28;20498;-74
2021/03/24 05:20:17;;;;;;;29.38;12.07;;;3.70;99.90;;;;;;5052875;28;20013;-73
2021/03/24 05:22:45;;;;;;;33.13;12.82;;;3.70;99.90;;;;;;5050853;28;20048;-74
2021/03/24 05:25:33;;;;;;;32.15;13.45;;;3.60;99.90;;;;;;5052644;28;20033;-74
2021/03/24 05:28:11;;;;;;;33.13;12.30;;;3.60;99.90;;;;;;5050366;28;20104;-73
2021/03/24 05:30:48;;;;;;;30.25;13.10;;;3.60;99.90;;;;;;5054357;28;20021;-73
2021/03/24 05:33:25;;;;;;;31.17;12.95;;;3.60;99.90;;;;;;5047914;28;20037;-73
2021/03/24 05:35:56;;;;;;;33.05;12.55;;;3.60;99.90;;;;;;5050503;28;20032;-74
2021/03/24 05:38:30;;;;;;;28.60;12.38;;;3.60;99.90;;;;;;5049504;28;20396;-74
2021/03/24 05:41:44;;;;;;;31.90;13.40;;;3.70;99.90;;;;;;5049158;28;20036;-73
2021/03/24 05:44:31;;;;;;;32.13;12.57;;;3.80;99.90;;;;;;5038665;28;20049;-73
2021/03/24 05:47:16;;;;;;;31.20;12.60;;;3.80;99.90;;;;;;5046414;28;20033;-73
2021/03/24 05:50:03;;;;;;;29.77;13.07;;;3.70;99.90;;;;;;5048191;28;20017;-74
2021/03/24 05:52:47;;;;;;;27.35;12.02;;;3.70;99.90;;;;;;5050501;28;20573;-73
2021/03/24 05:55:39;;;;;;;29.60;11.38;;;3.80;99.90;;;;;;5083783;28;20053;-73
2021/03/24 05:58:29;;;;;;;28.77;11.52;;;3.80;99.90;;;;;;5056472;28;20472;-73
2021/03/24 06:01:10;;;;;;;28.85;12.38;;;3.80;99.90;;;;;;5050129;28;20472;-73
2021/03/24 06:04:13;;;;;;;29.63;12.95;;;3.80;99.90;;;;;;5051038;28;20135;-74
2021/03/24 06:07:16;;;;;;;26.85;12.05;;;3.90;99.90;;;;;;5050231;28;20415;-74
2021/03/24 06:10:00;;;;;;;32.90;12.90;;;4.10;99.90;;;;;;5047634;28;20499;-74
2021/03/24 06:12:59;;;;;;;31.48;13.23;;;4.10;99.90;;;;;;5050559;28;20465;-74
2021/03/24 06:15:52;;;;;;;27.75;11.98;;;4.20;99.90;;;;;;5048643;28;20044;-73
2021/03/24 06:18:47;;;;;;;25.60;11.98;;;4.10;99.90;;;;;;5048582;28;20029;-73
2021/03/24 06:21:27;;;;;;;31.50;12.68;;;4.10;99.90;;;;;;5049347;28;20377;-73
2021/03/24 06:24:18;;;;;;;29.85;11.20;;;4.20;99.90;;;;;;5049898;28;20028;-74
2021/03/24 06:26:56;;;;;;;23.40;10.68;;;4.30;99.90;;;;;;5050892;28;20032;-73
2021/03/24 06:29:35;;;;;;;27.05;11.30;;;4.30;99.90;;;;;;5050190;28;20025;-73
2021/03/24 06:32:27;;;;;;;30.17;11.30;;;4.40;99.90;;;;;;5050559;28;20025;-74
2021/03/24 06:34:57;;;;;;;27.13;11.88;;;4.50;99.90;;;;;;5030043;28;20534;-73
2021/03/24 06:38:00;;;;;;;24.80;12.18;;;4.60;99.90;;;;;;5050269;28;20021;-74
2021/03/24 06:41:00;;;;;;;28.50;11.57;;;4.70;99.90;;;;;;5051106;28;20070;-73
2021/03/24 06:43:49;;;;;;;30.33;12.85;;;4.80;99.90;;;;;;5050214;28;20025;-73
2021/03/24 06:46:20;;;;;;;29.88;12.52;;;4.90;99.90;;;;;;5050807;28;20510;-73
2021/03/24 06:48:59;;;;;;;28.02;11.23;;;4.90;99.90;;;;;;5052293;28;20108;-73
2021/03/24 06:52:13;;;;;;;30.88;12.73;;;5.10;99.90;;;;;;5050001;28;20423;-73
2021/03/24 06:55:06;;;;;;;28.48;12.10;;;5.30;99.90;;;;;;5047457;28;20077;-73
2021/03/24 06:57:43;;;;;;;28.25;11.88;;;5.40;99.90;;;;;;5048173;28;20025;-73
2021/03/24 07:00:47;;;;;;;23.58;9.63;;;5.60;99.90;;;;;;5049738;28;20526;-73
2021/03/24 07:04:01;;;;;;;26.42;10.75;;;5.70;99.90;;;;;;5047732;28;20159;-74
2021/03/24 07:06:52;;;;;;;24.13;10.60;;;6.00;99.90;;;;;;5048677;28;20025;-73
2021/03/24 07:09:55;;;;;;;22.85;10.23;;;6.30;99.90;;;;;;5050146;28;20029;-73
2021/03/24 07:12:36;;;;;;;20.02;9.68;;;6.50;99.90;;;;;;5050144;28;20051;-73
2021/03/24 07:15:20;;;;;;;22.83;10.20;;;6.70;99.90;;;;;;5050237;28;20048;-73
2021/03/24 07:18:02;;;;;;;23.92;11.13;;;6.90;99.90;;;;;;5049241;28;20060;-73
2021/03/24 07:20:43;;;;;;;23.50;11.32;;;7.00;99.90;;;;;;5049954;28;20035;-73
2021/03/24 07:23:35;;;;;;;23.20;10.98;;;7.10;99.90;;;;;;5050100;28;20035;-73
2021/03/24 07:26:23;;;;;;;20.15;10.10;;;7.20;99.90;;;;;;5045529;28;20480;-74
2021/03/24 07:28:49;;;;;;;25.75;10.43;;;7.30;99.90;;;;;;5032594;28;20037;-74
2021/03/24 07:31:26;;;;;;;22.65;10.90;;;7.50;99.90;;;;;;5049664;28;20029;-73
2021/03/24 07:34:25;;;;;;;27.90;11.38;;;7.50;99.90;;;;;;5047693;28;20039;-74
2021/03/24 07:36:54;;;;;;;25.25;11.50;;;7.50;99.90;;;;;;5036581;28;20518;-74
2021/03/24 07:39:47;;;;;;;22.73;10.73;;;7.50;99.90;;;;;;5049512;28;20499;-73
2021/03/24 07:42:47;;;;;;;25.13;11.18;;;7.50;99.90;;;;;;5048950;28;20024;-73
2021/03/24 07:45:25;;;;;;;28.00;11.65;;;7.70;99.90;;;;;;5050041;28;20028;-73
2021/03/24 07:48:40;;;;;;;23.67;10.63;;;7.60;99.90;;;;;;5047476;28;20036;-73
2021/03/24 07:51:46;;;;;;;24.33;10.90;;;7.70;99.90;;;;;;5049215;28;20225;-73
2021/03/24 07:54:17;;;;;;;26.92;12.00;;;7.60;99.90;;;;;;5050178;28;20108;-73
2021/03/24 07:56:56;;;;;;;26.90;12.38;;;7.40;99.90;;;;;;5042144;28;20056;-73
2021/03/24 07:59:39;;;;;;;29.95;12.38;;;7.60;99.90;;;;;;5049486;28;20023;-73
2021/03/24 08:02:32;;;;;;;23.38;12.18;;;8.00;99.90;;;;;;5046066;28;20078;-73
2021/03/24 08:05:33;;;;;;;24.10;11.68;;;8.40;99.90;;;;;;5038343;28;20059;-72
2021/03/24 08:08:37;;;;;;;24.77;11.73;;;8.70;99.90;;;;;;5020951;28;20132;-73
2021/03/24 08:11:18;;;;;;;18.67;9.88;;;9.20;99.90;;;;;;5011991;28;20047;-73
2021/03/24 08:14:09;;;;;;;24.95;10.57;;;9.70;99.90;;;;;;5046404;28;20058;-73
2021/03/24 08:16:50;;;;;;;21.67;10.57;;;10.20;99.90;;;;;;5043766;28;20384;-73
2021/03/24 08:19:37;;;;;;;29.10;11.90;;;10.60;99.90;;;;;;5045482;28;20056;-73
2021/03/24 08:22:12;;;;;;;23.60;12.57;;;10.90;99.90;;;;;;5046991;28;20033;-73
2021/03/24 08:24:57;;;;;;;25.77;11.13;;;10.40;99.90;;;;;;5049825;28;20033;-73
2021/03/24 08:27:36;;;;;;;21.48;10.70;;;10.40;99.90;;;;;;5048951;28;20109;-73
2021/03/24 08:30:10;;;;;;;22.63;11.13;;;10.10;99.90;;;;;;5049952;28;20387;-73
2021/03/24 08:33:10;;;;;;;24.55;11.38;;;10.10;99.90;;;;;;5049309;28;20037;-73
2021/03/24 08:35:35;;;;;;;24.42;10.90;;;10.10;99.90;;;;;;5046911;28;20025;-73
2021/03/24 08:38:11;;;;;;;23.83;11.88;;;10.20;99.90;;;;;;5040663;28;20601;-73
2021/03/24 08:40:37;;;;;;;26.58;11.68;;;9.90;99.90;;;;;;5044538;28;20029;-72
2021/03/24 08:43:40;;;;;;;25.17;11.20;;;9.60;99.90;;;;;;5047561;28;20029;-73
2021/03/24 08:46:27;;;;;;;28.15;12.35;;;9.20;99.80;;;;;;5047087;28;20064;-72
2021/03/24 08:48:58;;;;;;;25.95;11.50;;;8.70;99.90;;;;;;5046357;28;20025;-73
2021/03/24 08:51:42;;;;;;;21.80;10.93;;;8.50;99.90;;;;;;5048410;28;20033;-73
2021/03/24 08:54:08;;;;;;;22.40;10.10;;;8.50;99.90;;;;;;5050421;28;20103;-73
2021/03/24 08:56:58;;;;;;;24.13;10.90;;;8.50;99.90;;;;;;5049835;28;20124;-73
2021/03/24 08:59:51;;;;;;;23.02;11.20;;;8.40;99.90;;;;;;5047442;28;20025;-72
2021/03/24 09:02:28;;;;;;;29.42;11.68;;;8.20;99.90;;;;;;5048713;28;20025;-72
2021/03/24 09:05:31;;;;;;;19.02;10.45;;;8.20;99.90;;;;;;5048438;28;20436;-72
2021/03/24 09:08:24;;;;;;;23.73;11.05;;;8.20;99.90;;;;;;5049375;28;20049;-72
2021/03/24 09:11:21;;;;;;;24.80;11.95;;;8.20;99.90;;;;;;5048935;28;20032;-72
2021/03/24 09:14:05;;;;;;;;;;;8.30;99.90;;;;;;5050752;28;20020;-73
2021/03/24 09:16:50;;;;;;;24.50;10.98;;;8.30;99.90;;;;;;5049584;28;19917;-73
2021/03/24 09:19:30;;;;;;;24.02;11.32;;;8.40;99.90;;;;;;5051639;28;20495;-72
2021/03/24 09:22:20;;;;;;;21.13;10.18;;;8.50;99.90;;;;;;5049308;28;20024;-72
2021/03/24 09:25:14;;;;;;;26.70;12.10;;;8.70;99.90;;;;;;5033129;28;20025;-72
2021/03/24 09:28:12;;;;;;;22.63;11.05;;;8.60;99.90;;;;;;5032523;28;20021;-72
2021/03/24 09:31:35;;;;;;;23.08;11.20;;;8.50;99.90;;;;;;5038675;28;20364;-73
2021/03/24 09:34:08;;;;;;;22.80;11.60;;;8.50;99.90;;;;;;4991845;28;20026;-73
2021/03/24 09:36:55;;;;;;;24.40;10.95;;;8.40;99.90;;;;;;5005815;28;20030;-73
2021/03/24 09:39:32;;;;;;;20.55;10.10;;;8.40;99.90;;;;;;5039542;28;20037;-73
2021/03/24 09:42:06;;;;;;;25.60;10.95;;;8.50;99.90;;;;;;5048029;28;20056;-73
2021/03/24 09:44:44;;;;;;;21.50;10.15;;;8.50;99.90;;;;;;5048715;28;20025;-73
2021/03/24 09:47:45;;;;;;;22.35;10.48;;;8.60;99.90;;;;;;5047844;28;20031;-74
2021/03/24 09:50:23;;;;;;;23.85;10.55;;;8.50;99.90;;;;;;5042927;28;20037;-74
2021/03/24 09:52:54;;;;;;;18.60;9.57;;;8.70;99.90;;;;;;5046515;28;20379;-73
2021/03/24 09:55:24;;;;;;;25.20;11.10;;;8.80;99.90;;;;;;5049438;28;20187;-72
2021/03/24 09:58:11;;;;;;;25.65;10.68;;;8.90;99.90;;;;;;5046993;28;20119;-73
2021/03/24 10:01:06;;;;;;;19.02;9.57;;;9.10;99.90;;;;;;5047864;28;20021;-72
2021/03/24 10:03:40;;;;;;;23.48;10.93;;;9.20;99.90;;;;;;5048132;28;20610;-71
2021/03/24 10:06:17;;;;;;;22.23;11.23;;;9.20;99.90;;;;;;5047000;28;20033;-72
2021/03/24 10:08:46;;;;;;;18.75;8.90;;;9.10;99.90;;;;;;5047832;28;20629;-72
2021/03/24 10:11:21;;;;;;;24.98;10.00;;;9.10;99.90;;;;;;5048053;28;20033;-72
2021/03/24 10:13:56;;;;;;;20.90;9.95;;;9.20;99.90;;;;;;5049103;28;20112;-72
2021/03/24 10:16:30;;;;;;;20.58;10.60;;;9.30;99.90;;;;;;5080537;28;20804;-72
2021/03/24 10:19:15;;;;;;;21.25;9.40;;;9.50;99.90;;;;;;5048411;28;20040;-72
2021/03/24 10:21:52;;;;;;;23.05;10.68;;;9.60;99.20;;;;;;5028593;28;20074;-73
2021/03/24 10:24:40;;;;;;;23.85;11.57;;;9.60;99.90;;;;;;5028534;28;20029;-73
2021/03/24 10:27:09;;;;;;;27.88;12.27;;;9.40;99.50;;;;;;5027522;28;20034;-72
2021/03/24 10:29:45;;;;;;;25.42;10.75;;;9.40;99.90;;;;;;5028866;28;20109;-73
2021/03/24 10:32:26;;;;;;;23.92;11.60;;;9.50;99.90;;;;;;5042141;28;20024;-72
2021/03/24 10:34:59;;;;;;;22.83;10.93;;;9.60;99.90;;;;;;5048342;28;20036;-73
2021/03/24 10:37:46;;;;;;;21.63;10.68;;;9.70;99.90;;;;;;5045075;28;20115;-73
2021/03/24 10:40:35;;;;;;;21.52;10.70;;;9.80;99.90;;;;;;5047572;28;20388;-73
2021/03/24 10:43:12;;;;;;;22.58;10.48;;;9.90;99.90;;;;;;5040757;28;20033;-73
2021/03/24 10:45:46;;;;;;;23.15;10.80;;;10.00;99.90;;;;;;5043228;28;20025;-73
2021/03/24 10:48:27;;;;;;;26.08;11.07;;;10.20;99.90;;;;;;5045723;28;20033;-73
2021/03/24 10:51:07;;;;;;;18.98;9.10;;;10.30;98.50;;;;;;5046750;28;20468;-73
2021/03/24 10:53:34;;;;;;;20.02;10.48;;;10.30;99.90;;;;;;5073278;28;20511;-73
2021/03/24 10:56:10;;;;;;;22.17;9.95;;;10.40;99.90;;;;;;5046095;28;20025;-74
2021/03/24 10:58:44;;;;;;;22.65;10.18;;;10.40;99.90;;;;;;5045176;28;20490;-74
2021/03/24 11:01:25;;;;;;;21.85;10.88;;;10.50;99.90;;;;;;5046217;28;20035;-74
2021/03/24 11:04:14;;;;;;;19.02;9.75;;;10.50;99.90;;;;;;5047748;28;20041;-74
2021/03/24 11:07:00;;;;;;;20.23;10.35;;;10.60;99.90;;;;;;5043665;28;20033;-73
2021/03/24 11:09:39;;;;;;;21.43;9.83;;;10.70;96.60;;;;;;5045267;28;20045;-73
2021/03/24 11:12:07;;;;;;;26.13;12.07;;;10.70;98.50;;;;;;5044305;28;20021;-73
2021/03/24 11:14:41;;;;;;;24.13;11.32;;;10.70;98.00;;;;;;5045938;28;20040;-73
2021/03/24 11:17:09;;;;;;;20.35;10.38;;;10.60;98.40;;;;;;5046240;28;20407;-73
2021/03/24 11:19:47;;;;;;;23.00;10.57;;;10.70;99.90;;;;;;5047056;28;20028;-73
2021/03/24 11:22:31;;;;;;;22.33;9.75;;;10.70;96.30;;;;;;5038448;28;20064;-73
2021/03/24 11:25:14;;;;;;;21.52;10.45;;;10.70;97.00;;;;;;5044142;28;20040;-73
2021/03/24 11:27:51;;;;;;;21.67;10.35;;;10.70;96.50;;;;;;5040007;28;20112;-74
2021/03/24 11:30:33;;;;;;;20.08;9.18;;;10.80;99.90;;;;;;5039428;28;20046;-73
2021/03/24 11:33:30;;;;;;;20.88;9.35;;;10.90;98.50;;;;;;5039749;28;20387;-73
2021/03/24 11:35:59;;;;;;;18.73;9.23;;;11.10;98.10;;;;;;5072052;28;20037;-72
2021/03/24 11:38:48;;;;;;;15.73;8.13;;;11.10;97.40;;;;;;5039454;28;20021;-72
2021/03/24 11:41:23;;;;;;;17.48;8.95;;;11.20;96.50;;;;;;5046497;28;20029;-72
2021/03/24 11:44:10;;;;;;;22.63;9.60;;;11.30;94.90;;;;;;5043366;28;20556;-73
2021/03/24 11:46:41;;;;;;;19.02;9.50;;;11.40;95.30;;;;;;5040781;28;20098;-72
2021/03/24 11:49:37;;;;;;;20.90;9.75;;;11.50;91.00;;;;;;5049820;28;20025;-73
2021/03/24 11:52:03;;;;;;;17.52;9.00;;;11.50;93.60;;;;;;5046161;28;20067;-73
2021/03/24 11:54:54;;;;;;;21.52;11.20;;;11.50;94.20;;;;;;5044971;28;20049;-73
2021/03/24 11:57:50;;;;;;;21.90;10.27;;;11.60;92.80;;;;;;5041059;28;20471;-73
2021/03/24 12:00:26;;;;;;;;;;;11.80;92.90;;;;;;5044814;28;20079;-73
2021/03/24 12:03:11;;;;;;;21.30;9.73;;;11.90;93.10;;;;;;5040775;28;19916;-73
2021/03/24 12:05:54;;;;;;;19.65;9.63;;;12.00;91.90;;;;;;5046408;28;20115;-73
2021/03/24 12:08:47;;;;;;;16.63;8.80;;;12.20;89.90;;;;;;5048822;28;20029;-73
2021/03/24 12:11:26;;;;;;;19.60;8.45;;;12.20;91.20;;;;;;5045830;28;20056;-73
2021/03/24 12:14:21;;;;;;;21.85;9.38;;;12.30;92.10;;;;;;5040471;28;20043;-73
2021/03/24 12:16:53;;;;;;;17.98;9.13;;;12.50;89.40;;;;;;5041679;28;20037;-72
2021/03/24 12:19:34;;;;;;;15.45;8.57;;;12.60;89.00;;;;;;5045961;28;20119;-72
2021/03/24 12:22:02;;;;;;;19.50;8.68;;;12.70;91.40;;;;;;5044951;28;20025;-73
2021/03/24 12:24:37;;;;;;;20.65;9.50;;;12.90;90.70;;;;;;5046272;28;20043;-73
2021/03/24 12:27:28;;;;;;;18.75;8.70;;;12.90;86.80;;;;;;5049775;28;20124;-72
2021/03/24 12:30:05;;;;;;;18.67;9.88;;;13.00;85.10;;;;;;5048028;28;21556;-73
2021/03/24 12:32:35;;;;;;;18.55;8.82;;;13.00;80.90;;;;;;5050500;28;20040;-73
2021/03/24 12:35:16;;;;;;;18.15;8.93;;;12.90;79.20;;;;;;5051516;28;20045;-73
2021/03/24 12:37:47;;;;;;;17.52;8.85;;;12.70;81.60;;;;;;5051488;28;20036;-73
2021/03/24 12:40:18;;;;;;;19.50;9.70;;;12.70;85.90;;;;;;5049492;28;20133;-73
2021/03/24 12:42:45;;;;;;;20.00;10.10;;;12.70;85.30;;;;;;5053121;28;20499;-73
2021/03/24 12:45:48;;;;;;;18.98;9.88;;;12.90;79.80;;;;;;5053313;28;20118;-72
2021/03/24 12:48:25;;;;;;;20.75;9.65;;;12.80;78.00;;;;;;5056696;28;20120;-72
2021/03/24 12:51:11;;;;;;;20.67;9.45;;;12.60;79.50;;;;;;5052163;28;20036;-73
2021/03/24 12:53:54;;;;;;;18.40;8.63;;;12.50;82.20;;;;;;5047978;28;20052;-73
2021/03/24 12:56:38;;;;;;;19.13;8.65;;;12.60;78.50;;;;;;5052825;28;20426;-73
2021/03/24 12:59:12;;;;;;;17.52;7.78;;;12.70;80.30;;;;;;5053224;28;20029;-73
2021/03/24 13:01:43;;;;;;;17.77;8.38;;;12.70;79.00;;;;;;5052119;28;20021;-73
2021/03/24 13:04:47;;;;;;;15.27;7.72;;;12.80;81.40;;;;;;5048105;28;20485;-73
2021/03/24 13:07:36;;;;;;;18.42;7.95;;;12.90;76.50;;;;;;5050582;28;20104;-73
2021/03/24 13:10:12;;;;;;;17.30;8.48;;;13.10;80.70;;;;;;5050602;28;20082;-73
2021/03/24 13:12:43;;;;;;;;;;;13.50;78.50;;;;;;5050220;28;20029;-73
2021/03/24 13:15:39;;;;;;;18.05;8.93;;;13.80;78.00;;;;;;5052396;28;19967;-73
2021/03/24 13:18:17;;;;;;;15.05;7.55;;;14.00;74.10;;;;;;5042786;28;20132;-73
2021/03/24 13:20:58;;;;;;;17.45;7.93;;;13.90;74.40;;;;;;5052507;28;20040;-73
2021/03/24 13:24:02;;;;;;;15.80;7.85;;;14.00;78.90;;;;;;5085516;28;20103;-73
2021/03/24 13:26:33;;;;;;;19.42;8.30;;;14.00;78.40;;;;;;5052668;28;20048;-73
2021/03/24 13:29:31;;;;;;;18.77;9.48;;;14.20;73.70;;;;;;5044919;28;20040;-73
2021/03/24 13:32:23;;;;;;;15.73;7.75;;;14.10;71.90;;;;;;5035150;28;20049;-73
2021/03/24 13:35:25;;;;;;;18.50;8.23;;;14.10;75.00;;;;;;5085257;28;20037;-73
2021/03/24 13:37:51;;;;;;;19.63;9.00;;;14.10;72.00;;;;;;5081830;28;20113;-73